Oxford, Canada
Current Conditions -  °F | °C
As of 7:00 AM on Monday 20 Oct 2014 (Local Time) from CYQM Reporting Station
Broken Clouds Broken Clouds  
Wind Chill: 29°   Ceiling: 10000
Heat Index: 37°   Visibility: 15mi
Dew Point: 32°   Wind: 15mph
Humidity: 81%   Direction: 270°W
Pressure: 29.63"   Gusts: NA
Location:  45.73°N, 63.87°W
Report Text: CYQM 201000Z 27013KT 15SM BKN100 03/00 A2963 RMK AC6 SLP034
Loading
Personal Weather Stations






























Interactive Weather Map
Tropical Storm Tracking
New forecast layout! Learn more

10-Day Weather Forecast

Advertisements
Track Severe Weather on mobile